createdAt,value
2023-03-23T15:58:45.251Z,14.98
2023-03-23T15:59:47.172Z,14.89
2023-03-23T16:00:51.398Z,14.81
2023-03-23T16:01:53.251Z,14.85
2023-03-23T16:03:08.357Z,14.84
2023-03-23T16:04:17.665Z,14.79
2023-03-23T16:05:19.509Z,14.60
2023-03-23T16:06:25.597Z,14.69
2023-03-23T16:07:27.624Z,14.75
2023-03-23T16:08:30.132Z,14.67
2023-03-23T16:09:31.892Z,14.68
2023-03-23T16:10:33.627Z,14.62
2023-03-23T16:11:35.496Z,14.60
2023-03-23T16:12:37.229Z,14.65
2023-03-23T16:13:39.740Z,14.54
2023-03-23T16:14:41.692Z,14.48
2023-03-23T16:15:43.611Z,14.50
2023-03-23T16:16:50.734Z,14.53
2023-03-23T16:17:53.059Z,14.45
2023-03-23T16:18:55.435Z,14.40
2023-03-23T16:19:57.146Z,14.38
2023-03-23T16:20:58.915Z,14.41
2023-03-23T16:22:00.729Z,14.39
2023-03-23T16:23:02.442Z,14.39
2023-03-23T16:24:04.291Z,14.37
2023-03-23T16:25:07.517Z,14.34
2023-03-23T16:26:09.211Z,14.36
2023-03-23T16:27:14.785Z,14.34
2023-03-23T16:28:17.234Z,14.31
2023-03-23T16:29:39.785Z,14.28
2023-03-23T16:30:43.164Z,13.90
2023-03-23T16:31:44.862Z,13.99
2023-03-23T16:32:48.213Z,13.94
2023-03-23T16:33:50.098Z,13.75
2023-03-23T16:34:51.831Z,13.63
2023-03-23T16:35:53.711Z,13.51
2023-03-23T16:36:56.365Z,13.42
2023-03-23T16:38:07.144Z,13.39
2023-03-23T16:39:12.429Z,13.24
2023-03-23T16:40:16.189Z,13.13
2023-03-23T16:41:17.904Z,13.13
2023-03-23T16:42:19.626Z,12.97
2023-03-23T16:43:21.594Z,12.94
2023-03-23T16:44:23.347Z,12.79
2023-03-23T16:45:26.641Z,12.76
2023-03-23T16:46:29.675Z,12.76
2023-03-23T16:47:31.609Z,12.73
2023-03-23T16:48:33.440Z,12.57
2023-03-23T16:49:35.315Z,12.56
2023-03-23T16:50:38.092Z,12.50
2023-03-23T16:51:41.638Z,12.51
2023-03-23T16:52:47.605Z,12.48
2023-03-23T16:53:49.355Z,12.46
2023-03-23T16:54:51.090Z,12.45
2023-03-23T16:55:53.247Z,12.36
2023-03-23T16:56:55.132Z,12.36
2023-03-23T16:58:12.871Z,12.31
2023-03-23T16:59:17.753Z,12.25
2023-03-23T17:00:23.212Z,12.25
2023-03-23T17:01:26.201Z,12.25
2023-03-23T17:02:28.022Z,12.25
2023-03-23T17:03:31.047Z,12.30
2023-03-23T17:04:34.009Z,12.31
2023-03-23T17:05:39.739Z,12.29
2023-03-23T17:06:43.062Z,12.33
2023-03-23T17:07:47.890Z,12.30
2023-03-23T17:08:49.601Z,12.32
2023-03-23T17:09:51.500Z,12.24
2023-03-23T17:10:53.396Z,12.22
2023-03-23T17:11:55.536Z,12.24
2023-03-23T17:12:57.645Z,12.23
2023-03-23T17:13:59.340Z,12.29
2023-03-23T17:15:01.289Z,12.30
2023-03-23T17:16:03.031Z,12.30
2023-03-23T17:17:04.757Z,12.25
2023-03-23T17:18:07.569Z,12.15
2023-03-23T17:19:09.329Z,12.18
2023-03-23T17:20:12.381Z,12.19
2023-03-23T17:21:14.082Z,12.06
2023-03-23T17:22:16.416Z,12.11
2023-03-23T17:23:18.277Z,12.08
2023-03-23T17:24:21.720Z,12.14
2023-03-23T17:25:23.409Z,12.06
2023-03-23T17:26:25.110Z,12.01
2023-03-23T17:27:26.890Z,11.99
2023-03-23T17:28:28.709Z,11.88
2023-03-23T17:29:30.557Z,11.83
2023-03-23T17:30:32.352Z,11.80
2023-03-23T17:31:34.164Z,11.73
2023-03-23T17:32:36.838Z,11.76
2023-03-23T17:33:38.547Z,11.68
2023-03-23T17:34:40.667Z,11.59
2023-03-23T17:35:43.440Z,11.53
2023-03-23T17:36:46.478Z,11.57
2023-03-23T17:37:48.564Z,11.60
2023-03-23T17:38:51.131Z,11.57
2023-03-23T17:39:52.928Z,11.58
2023-03-23T17:40:59.079Z,11.69
2023-03-23T17:42:01.504Z,11.64
2023-03-23T17:43:03.299Z,11.57
2023-03-23T17:44:05.163Z,11.53
2023-03-23T17:45:09.240Z,11.55
2023-03-23T17:46:11.161Z,11.49
2023-03-23T17:47:13.061Z,11.43
2023-03-23T17:48:14.873Z,11.47
2023-03-23T17:49:17.056Z,11.41
2023-03-23T17:50:21.752Z,11.40
2023-03-23T17:51:23.505Z,11.33
2023-03-23T17:52:27.477Z,11.40
2023-03-23T17:53:31.404Z,11.42
2023-03-23T17:54:33.106Z,11.41
2023-03-23T17:55:34.803Z,11.46
2023-03-23T17:56:36.716Z,11.48
2023-03-23T17:57:39.061Z,11.44
2023-03-23T17:58:41.135Z,11.56
2023-03-23T17:59:43.972Z,11.55
2023-03-23T18:00:45.737Z,11.56
2023-03-23T18:01:49.024Z,11.59
2023-03-23T18:02:50.974Z,11.58
2023-03-23T18:03:52.883Z,11.60
2023-03-23T18:04:58.343Z,11.57
2023-03-23T18:06:05.258Z,11.49
2023-03-23T18:07:07.521Z,11.55
2023-03-23T18:08:09.538Z,11.57
2023-03-23T18:09:11.464Z,11.62
2023-03-23T18:10:13.417Z,11.67
2023-03-23T18:11:15.547Z,11.72
2023-03-23T18:12:17.878Z,11.69
2023-03-23T18:13:19.572Z,11.67
2023-03-23T18:14:21.612Z,11.71
2023-03-23T18:15:28.127Z,11.70
2023-03-23T18:16:31.383Z,11.67
2023-03-23T18:17:33.388Z,11.69
2023-03-23T18:18:35.653Z,11.56
2023-03-23T18:19:37.420Z,11.50
2023-03-23T18:20:39.196Z,11.37
2023-03-23T18:21:40.951Z,11.24
2023-03-23T18:22:43.867Z,11.14
2023-03-23T18:23:56.730Z,11.11
2023-03-23T18:25:02.815Z,11.10
2023-03-23T18:26:08.993Z,11.07
2023-03-23T18:27:10.740Z,11.05
2023-03-23T18:28:12.525Z,11.01
2023-03-23T18:29:14.253Z,11.04
2023-03-23T18:30:16.096Z,11.06
2023-03-23T18:31:19.474Z,11.12
2023-03-23T18:32:21.330Z,11.13
2023-03-23T18:33:25.895Z,11.14
2023-03-23T18:34:28.023Z,11.10
2023-03-23T18:35:31.031Z,11.03
2023-03-23T18:36:33.390Z,10.97
2023-03-23T18:37:36.068Z,10.92
2023-03-23T18:38:38.836Z,10.92
2023-03-23T18:39:40.924Z,10.91
2023-03-23T18:40:46.870Z,10.90
2023-03-23T18:41:49.067Z,10.90
2023-03-23T18:42:50.994Z,10.84
2023-03-23T18:43:52.799Z,10.87
2023-03-23T18:44:55.065Z,10.90
2023-03-23T18:45:57.510Z,10.94
2023-03-23T18:46:59.597Z,10.91
2023-03-23T18:48:01.408Z,10.85
2023-03-23T18:49:03.479Z,10.94
2023-03-23T18:50:07.524Z,11.00
2023-03-23T18:51:10.112Z,10.97
2023-03-23T18:52:12.248Z,11.07
2023-03-23T18:53:15.383Z,11.08
2023-03-23T18:54:17.757Z,11.09
2023-03-23T18:55:20.856Z,11.13
2023-03-23T18:56:23.933Z,11.07
2023-03-23T18:57:26.557Z,11.18
2023-03-23T18:58:28.342Z,11.16
2023-03-23T18:59:34.632Z,11.28
2023-03-23T19:00:37.405Z,11.28
2023-03-23T19:01:39.906Z,11.25
2023-03-23T19:02:43.757Z,11.28
2023-03-23T19:03:46.437Z,11.24
2023-03-23T19:04:49.159Z,11.21
2023-03-23T19:05:51.871Z,11.23
2023-03-23T19:06:53.611Z,11.27
2023-03-23T19:07:55.452Z,11.29
2023-03-23T19:08:57.796Z,11.31
2023-03-23T19:09:59.587Z,11.40
2023-03-23T19:11:04.776Z,11.44
2023-03-23T19:12:07.097Z,11.41
2023-03-23T19:13:09.601Z,11.39
2023-03-23T19:14:12.135Z,11.45
2023-03-23T19:15:16.598Z,11.51
2023-03-23T19:16:19.261Z,11.53
2023-03-23T19:17:26.384Z,11.54
2023-03-23T19:18:28.450Z,11.53
2023-03-23T19:19:30.440Z,11.58
2023-03-23T19:21:07.813Z,11.57
2023-03-23T19:21:54.300Z,11.49
2023-03-23T19:22:56.014Z,11.54
2023-03-23T19:23:57.757Z,11.55
2023-03-23T19:24:59.474Z,11.56
2023-03-23T19:26:01.215Z,11.46
2023-03-23T19:27:03.113Z,11.46
2023-03-23T19:30:21.315Z,11.53
2023-03-23T19:31:25.188Z,11.57
2023-03-23T19:32:30.116Z,11.50
2023-03-23T19:33:34.624Z,11.53
2023-03-23T19:34:36.626Z,11.53
2023-03-23T19:35:39.188Z,11.49
2023-03-23T19:36:40.971Z,11.55
2023-03-23T19:37:42.804Z,11.60
2023-03-23T19:38:44.851Z,11.59
2023-03-23T19:39:47.157Z,11.54
2023-03-23T19:42:04.828Z,11.59
2023-03-23T19:43:06.617Z,11.61
2023-03-23T19:44:08.654Z,11.53
2023-03-23T19:45:11.027Z,11.53
2023-03-23T19:46:16.034Z,11.43
2023-03-23T19:47:25.642Z,11.43
2023-03-23T19:48:28.757Z,11.45
2023-03-23T19:49:31.540Z,11.50
2023-03-23T19:50:35.319Z,11.49
2023-03-23T19:51:37.162Z,11.53
2023-03-23T19:52:39.097Z,11.45
2023-03-23T19:53:41.718Z,11.51
2023-03-23T19:54:43.751Z,11.54
2023-03-23T19:55:46.048Z,11.56
2023-03-23T19:56:48.146Z,11.59
2023-03-23T19:57:50.745Z,11.58
2023-03-23T19:58:52.589Z,11.55
2023-03-23T19:59:55.903Z,11.64
2023-03-23T20:00:57.757Z,11.61
2023-03-23T20:01:59.484Z,11.59
2023-03-23T20:03:01.402Z,11.59
2023-03-23T20:04:05.413Z,11.56
2023-03-23T20:05:08.696Z,11.63
2023-03-23T20:06:14.953Z,11.63
2023-03-23T20:07:16.722Z,11.65
2023-03-23T20:08:18.431Z,11.62
2023-03-23T20:09:20.271Z,11.60
2023-03-23T20:10:22.899Z,11.52
2023-03-23T20:11:24.679Z,11.56
2023-03-23T20:12:26.486Z,11.57
2023-03-23T20:13:28.364Z,11.57
2023-03-23T20:14:30.433Z,11.57
2023-03-23T20:15:32.993Z,11.59
2023-03-23T20:16:37.744Z,11.61
2023-03-23T20:17:39.988Z,11.55
2023-03-23T20:18:41.861Z,11.58
2023-03-23T20:19:46.663Z,11.54
2023-03-23T20:20:51.703Z,11.56
2023-03-23T20:21:56.341Z,11.49
2023-03-23T20:22:59.046Z,11.56
2023-03-23T20:24:00.963Z,11.55
2023-03-23T20:25:02.903Z,11.54
2023-03-23T20:26:09.435Z,11.53
2023-03-23T20:27:11.480Z,11.49
2023-03-23T20:28:13.358Z,11.50
2023-03-23T20:29:15.386Z,11.50
2023-03-23T20:30:18.858Z,11.46
2023-03-23T20:31:24.594Z,11.46
2023-03-23T20:32:26.602Z,11.42
2023-03-23T20:33:30.601Z,11.44
2023-03-23T20:34:32.338Z,11.45
2023-03-23T20:35:34.032Z,11.42
2023-03-23T20:36:40.556Z,11.42
2023-03-23T20:37:42.469Z,11.43
2023-03-23T20:38:44.804Z,11.42
2023-03-23T20:39:48.916Z,11.41
2023-03-23T20:40:51.376Z,11.39
2023-03-23T20:41:58.786Z,11.31
2023-03-23T20:43:01.386Z,11.37
2023-03-23T20:44:03.908Z,11.14
2023-03-23T20:45:07.525Z,11.36
2023-03-23T20:46:10.797Z,11.32
2023-03-23T20:47:12.526Z,11.31
2023-03-23T20:48:14.344Z,11.35
2023-03-23T20:49:17.690Z,11.33
2023-03-23T20:50:20.420Z,11.35
2023-03-23T20:51:22.199Z,11.32
2023-03-23T20:52:28.662Z,11.36
2023-03-23T20:53:31.949Z,11.36
2023-03-23T20:54:34.900Z,11.33
2023-03-23T20:55:36.700Z,11.30
2023-03-23T20:56:40.548Z,11.28
2023-03-23T20:57:42.526Z,11.27
2023-03-23T20:58:44.659Z,11.31
2023-03-23T20:59:46.454Z,11.28
2023-03-23T21:00:51.354Z,11.30
2023-03-23T21:01:53.968Z,11.27
2023-03-23T21:02:56.072Z,11.27
2023-03-23T21:03:57.957Z,11.27
2023-03-23T21:05:04.378Z,11.18
2023-03-23T21:06:07.126Z,11.23
2023-03-23T21:07:10.106Z,11.18
2023-03-23T21:08:11.840Z,11.24
2023-03-23T21:09:14.257Z,11.27
2023-03-23T21:10:16.213Z,11.28
2023-03-23T21:11:20.058Z,11.29
2023-03-23T21:12:22.594Z,11.22
2023-03-23T21:13:24.447Z,11.29
2023-03-23T21:14:26.900Z,11.30
2023-03-23T21:15:29.092Z,11.25
2023-03-23T21:16:30.985Z,11.31
2023-03-23T21:17:34.978Z,11.31
2023-03-23T21:18:37.255Z,11.27
2023-03-23T21:19:39.043Z,11.29
2023-03-23T21:20:42.373Z,11.31
2023-03-23T21:21:55.604Z,11.31
2023-03-23T21:22:59.434Z,11.31
2023-03-23T21:24:01.681Z,11.25
2023-03-23T21:25:03.876Z,11.29
2023-03-23T21:26:09.705Z,11.29
2023-03-23T21:27:11.448Z,11.27
2023-03-23T21:28:13.845Z,11.23
2023-03-23T21:29:15.641Z,11.21
2023-03-23T21:30:17.953Z,11.22
2023-03-23T21:31:23.304Z,11.16
2023-03-23T21:32:26.060Z,11.09
2023-03-23T21:33:28.375Z,11.11
2023-03-23T21:34:30.663Z,11.01
2023-03-23T21:35:32.429Z,11.03
2023-03-23T21:36:35.603Z,11.08
2023-03-23T21:37:38.091Z,11.05
2023-03-23T21:38:40.690Z,10.84
2023-03-23T21:39:42.416Z,11.04
2023-03-23T21:40:44.988Z,10.98
2023-03-23T21:41:49.822Z,11.01
2023-03-23T21:42:56.105Z,10.98
2023-03-23T21:43:58.648Z,10.92
2023-03-23T21:45:04.029Z,10.89
2023-03-23T21:46:09.887Z,10.83
2023-03-23T21:47:12.936Z,10.83
2023-03-23T21:48:15.528Z,10.73
2023-03-23T21:49:17.239Z,10.68
2023-03-23T21:50:22.140Z,10.59
2023-03-23T21:51:26.199Z,10.49
2023-03-23T21:52:28.262Z,10.50
2023-03-23T21:53:31.026Z,10.49
2023-03-23T21:54:34.402Z,10.40
2023-03-23T21:55:36.598Z,10.28
2023-03-23T21:56:41.849Z,10.21
2023-03-23T21:57:43.713Z,10.12
2023-03-23T21:58:48.223Z,10.09
2023-03-23T21:59:50.457Z,10.01
2023-03-23T22:00:54.811Z,9.81
2023-03-23T22:01:58.477Z,9.83
2023-03-23T22:03:04.911Z,9.80
2023-03-23T22:04:07.810Z,9.71
2023-03-23T22:05:10.594Z,9.63
2023-03-23T22:06:15.876Z,9.64
2023-03-23T22:07:18.225Z,9.57
2023-03-23T22:08:28.919Z,9.59
2023-03-23T22:09:31.061Z,9.57
2023-03-23T22:10:32.837Z,9.57
2023-03-23T22:11:36.574Z,9.58
2023-03-23T22:12:39.451Z,9.52
2023-03-23T22:13:42.301Z,9.48
2023-03-23T22:14:44.428Z,9.52
2023-03-23T22:15:51.718Z,9.52
2023-03-23T22:16:53.908Z,9.50
2023-03-23T22:17:55.771Z,9.47
2023-03-23T22:19:00.394Z,9.51
2023-03-23T22:20:02.678Z,9.50
2023-03-23T22:21:06.259Z,9.52
2023-03-23T22:22:08.051Z,9.53
2023-03-23T22:23:10.104Z,9.52
2023-03-23T22:24:14.937Z,9.50
2023-03-23T22:25:16.789Z,9.48
2023-03-23T22:26:18.987Z,9.49
2023-03-23T22:27:20.929Z,9.50
2023-03-23T22:28:26.509Z,9.51
2023-03-23T22:29:28.491Z,9.54
2023-03-23T22:30:34.924Z,9.52
2023-03-23T22:31:39.812Z,9.49
2023-03-23T22:32:41.749Z,9.47
2023-03-23T22:33:43.673Z,9.45
2023-03-23T22:34:47.392Z,9.40
2023-03-23T22:35:49.284Z,9.35
2023-03-23T22:36:51.714Z,9.29
2023-03-23T22:37:53.808Z,9.27
2023-03-23T22:38:56.542Z,9.26
2023-03-23T22:39:58.435Z,9.23
2023-03-23T22:41:04.815Z,9.16
2023-03-23T22:42:06.599Z,9.14
2023-03-23T22:43:09.076Z,9.05
2023-03-23T22:44:18.199Z,9.11
2023-03-23T22:45:20.109Z,9.11
2023-03-23T22:46:22.126Z,9.07
2023-03-23T22:47:23.900Z,9.11
2023-03-23T22:48:27.693Z,9.13
2023-03-23T22:49:29.522Z,9.12
2023-03-23T22:50:31.320Z,9.09
2023-03-23T22:51:33.190Z,9.11
2023-03-23T22:52:36.973Z,9.10
2023-03-23T22:53:39.022Z,9.11
2023-03-23T22:54:41.181Z,9.08
2023-03-23T22:55:45.124Z,8.97
2023-03-23T22:56:47.105Z,8.83
2023-03-23T22:57:48.833Z,8.86
2023-03-23T22:58:50.969Z,8.86
2023-03-23T22:59:52.720Z,8.86
2023-03-23T23:01:01.302Z,8.87
2023-03-23T23:02:03.046Z,8.88
2023-03-23T23:03:06.714Z,8.90
2023-03-23T23:04:08.602Z,8.87
2023-03-23T23:05:12.010Z,8.93
2023-03-23T23:06:15.777Z,8.93
2023-03-23T23:07:18.166Z,8.94
2023-03-23T23:08:20.652Z,8.89
2023-03-23T23:09:22.434Z,8.93
2023-03-23T23:10:24.125Z,8.91
2023-03-23T23:11:26.743Z,8.92
2023-03-23T23:12:31.821Z,8.89
2023-03-23T23:13:33.626Z,8.85
2023-03-23T23:14:36.079Z,8.75
2023-03-23T23:15:42.760Z,8.74
2023-03-23T23:16:44.726Z,8.77
2023-03-23T23:17:46.875Z,8.74
2023-03-23T23:18:49.232Z,8.70
2023-03-23T23:19:51.607Z,8.57
2023-03-23T23:20:57.798Z,8.53
2023-03-23T23:22:09.280Z,8.48
2023-03-23T23:23:18.616Z,8.47
2023-03-23T23:24:20.521Z,8.48
2023-03-23T23:25:22.550Z,8.47
2023-03-23T23:26:24.332Z,8.48
2023-03-23T23:27:26.501Z,8.49
2023-03-23T23:28:30.412Z,8.50
2023-03-23T23:29:32.103Z,8.42
2023-03-23T23:30:37.172Z,8.45
2023-03-23T23:31:38.987Z,8.49
2023-03-23T23:32:44.687Z,8.48
2023-03-23T23:33:46.499Z,8.47
2023-03-23T23:34:48.594Z,8.27
2023-03-23T23:35:50.384Z,8.50
2023-03-23T23:36:52.188Z,8.48
2023-03-23T23:37:54.623Z,8.39
2023-03-23T23:39:01.270Z,8.47
2023-03-23T23:40:09.829Z,8.47
2023-03-23T23:41:11.734Z,8.43
2023-03-23T23:42:13.470Z,8.33
2023-03-23T23:43:16.573Z,8.35
2023-03-23T23:44:18.288Z,8.29
2023-03-23T23:45:22.127Z,8.32
2023-03-23T23:46:23.875Z,8.22
2023-03-23T23:47:27.979Z,8.22
2023-03-23T23:48:29.736Z,8.17
2023-03-23T23:49:33.056Z,8.17
2023-03-23T23:50:34.850Z,8.19
2023-03-23T23:51:37.583Z,8.08
2023-03-23T23:52:40.866Z,8.10
2023-03-23T23:53:44.382Z,7.98
2023-03-23T23:54:49.134Z,7.97
2023-03-23T23:55:51.019Z,8.00
2023-03-23T23:56:52.758Z,8.01
2023-03-23T23:57:55.112Z,7.99
2023-03-23T23:58:57.452Z,8.00
2023-03-23T23:59:59.207Z,8.05
